createdAt,value
2023-01-01T00:03:33.017Z,82.90
2023-01-01T00:11:40.911Z,83.60
2023-01-01T00:19:46.315Z,84.80
2023-01-01T00:27:55.983Z,84.10
2023-01-01T00:36:01.316Z,83.80
2023-01-01T00:44:09.282Z,83.40
2023-01-01T00:52:14.874Z,83.60
2023-01-01T01:00:23.804Z,84.00
2023-01-01T01:08:31.328Z,84.70
2023-01-01T01:16:41.231Z,84.80
2023-01-01T01:24:46.788Z,84.80
2023-01-01T01:32:54.776Z,84.90
2023-01-01T01:41:00.705Z,84.60
2023-01-01T01:49:15.483Z,85.30
2023-01-01T01:57:21.818Z,85.20
2023-01-01T02:05:31.634Z,85.20
2023-01-01T02:13:36.985Z,85.00
2023-01-01T02:21:55.489Z,85.40
2023-01-01T02:30:06.950Z,85.80
2023-01-01T02:38:18.363Z,86.60
2023-01-01T02:46:26.656Z,86.30
2023-01-01T02:54:38.383Z,86.60
2023-01-01T03:03:03.314Z,87.50
2023-01-01T03:11:12.879Z,86.90
2023-01-01T03:19:23.525Z,86.30
2023-01-01T03:27:33.131Z,85.70
2023-01-01T03:35:47.204Z,85.60
2023-01-01T03:43:56.804Z,85.40
2023-01-01T03:52:18.981Z,84.90
2023-01-01T04:00:28.397Z,85.10
2023-01-01T04:08:38.426Z,84.50
2023-01-01T04:16:44.152Z,84.20
2023-01-01T04:24:52.224Z,84.40
2023-01-01T04:32:58.192Z,84.10
2023-01-01T04:41:06.856Z,85.10
2023-01-01T04:49:12.355Z,85.70
2023-01-01T04:57:20.353Z,86.10
2023-01-01T05:05:25.946Z,85.90
2023-01-01T05:13:34.676Z,85.80
2023-01-01T05:21:42.489Z,86.20
2023-01-01T05:29:50.499Z,86.60
2023-01-01T05:37:55.806Z,85.90
2023-01-01T05:46:08.930Z,86.60
2023-01-01T06:02:21.143Z,86.70
2023-01-01T06:10:26.547Z,85.80
2023-01-01T06:18:37.132Z,85.00
2023-01-01T06:26:45.391Z,85.40
2023-01-01T06:34:53.369Z,85.10
2023-01-01T06:42:58.604Z,84.60
2023-01-01T06:51:12.949Z,84.40
2023-01-01T06:59:19.887Z,84.20
2023-01-01T07:07:35.627Z,84.10
2023-01-01T07:15:41.565Z,83.80
2023-01-01T07:23:50.896Z,83.60
2023-01-01T07:32:04.550Z,82.50
2023-01-01T07:40:13.119Z,81.20
2023-01-01T07:48:19.951Z,81.10
2023-01-01T07:56:30.398Z,80.00
2023-01-01T08:04:35.865Z,81.50
2023-01-01T08:12:43.901Z,80.40
2023-01-01T08:20:49.393Z,78.90
2023-01-01T08:28:57.728Z,77.80
2023-01-01T08:37:03.386Z,77.70
2023-01-01T08:45:13.002Z,76.40
2023-01-01T08:53:20.457Z,77.40
2023-01-01T09:01:28.545Z,76.80
2023-01-01T09:09:34.698Z,75.20
2023-01-01T09:17:43.176Z,75.30
2023-01-01T09:25:49.196Z,69.40
2023-01-01T09:33:57.312Z,67.70
2023-01-01T09:42:13.026Z,68.40
2023-01-01T09:50:26.102Z,65.80
2023-01-01T09:58:35.342Z,56.90
2023-01-01T10:06:49.195Z,50.70
2023-01-01T10:15:01.050Z,46.80
2023-01-01T10:23:20.102Z,45.60
2023-01-01T10:31:34.427Z,51.00
2023-01-01T10:39:43.191Z,59.00
2023-01-01T10:48:18.323Z,63.60
2023-01-01T10:56:29.085Z,67.60
2023-01-01T11:04:35.323Z,68.20
2023-01-01T11:13:04.638Z,68.40
2023-01-01T11:21:10.834Z,70.60
2023-01-01T11:29:29.956Z,70.80
2023-01-01T11:37:42.519Z,70.30
2023-01-01T11:45:52.965Z,70.40
2023-01-01T11:54:13.187Z,71.20
2023-01-01T12:02:32.421Z,71.90
2023-01-01T12:10:46.073Z,71.00
2023-01-01T12:19:03.279Z,71.20
2023-01-01T12:27:20.168Z,72.10
2023-01-01T12:35:36.671Z,71.70
2023-01-01T12:43:47.559Z,72.20
2023-01-01T12:52:07.305Z,70.80
2023-01-01T13:00:17.060Z,70.90
2023-01-01T13:08:25.188Z,69.00
2023-01-01T13:16:39.621Z,69.30
2023-01-01T13:25:06.483Z,70.10
2023-01-01T13:33:26.288Z,69.20
2023-01-01T13:41:42.564Z,69.20
2023-01-01T13:50:07.561Z,69.40
2023-01-01T13:58:46.622Z,69.70
2023-01-01T14:06:55.457Z,70.10
2023-01-01T14:15:18.383Z,70.60
2023-01-01T14:23:31.600Z,72.00
2023-01-01T14:31:46.699Z,71.90
2023-01-01T14:40:17.828Z,72.20
2023-01-01T14:48:26.772Z,72.60
2023-01-01T14:56:36.282Z,73.40
2023-01-01T15:04:49.216Z,74.00
2023-01-01T15:12:55.026Z,74.50
2023-01-01T15:21:06.800Z,75.00
2023-01-01T15:29:14.207Z,75.50
2023-01-01T15:37:25.459Z,76.20
2023-01-01T15:45:34.789Z,76.60
2023-01-01T15:54:00.168Z,77.10
2023-01-01T16:02:18.002Z,77.50
2023-01-01T16:10:26.181Z,77.70
2023-01-01T16:18:36.894Z,77.90
2023-01-01T16:26:45.393Z,78.20
2023-01-01T16:34:51.203Z,78.60
2023-01-01T16:42:59.380Z,78.80
2023-01-01T16:51:04.983Z,79.60
2023-01-01T16:59:15.392Z,79.30
2023-01-01T17:07:21.107Z,79.80
2023-01-01T17:15:29.287Z,79.90
2023-01-01T17:23:39.882Z,80.30
2023-01-01T17:31:49.972Z,80.60
2023-01-01T17:39:55.838Z,81.00
2023-01-01T17:48:05.028Z,81.20
2023-01-01T17:56:15.402Z,82.00
2023-01-01T18:04:23.654Z,81.90
2023-01-01T18:12:29.195Z,82.20
2023-01-01T18:20:37.191Z,82.10
2023-01-01T18:28:42.941Z,82.10
2023-01-01T18:36:51.100Z,82.20
2023-01-01T18:44:58.698Z,82.30
2023-01-01T18:53:19.918Z,82.70
2023-01-01T19:01:27.233Z,82.90
2023-01-01T19:09:37.044Z,83.50
2023-01-01T19:17:53.156Z,83.00
2023-01-01T19:26:05.166Z,83.30
2023-01-01T19:34:11.272Z,83.40
2023-01-01T19:42:19.199Z,83.90
2023-01-01T19:50:24.579Z,84.40
2023-01-01T19:58:34.852Z,84.90
2023-01-01T20:06:40.467Z,85.50
2023-01-01T20:14:48.463Z,85.90
2023-01-01T20:31:39.415Z,85.80
2023-01-01T20:39:47.422Z,85.40
2023-01-01T20:47:53.607Z,86.60
2023-01-01T20:56:03.445Z,87.20
2023-01-01T21:04:09.245Z,87.50
2023-01-01T21:12:19.655Z,87.10
2023-01-01T21:20:25.285Z,86.30
2023-01-01T21:29:12.027Z,86.00
2023-01-01T21:37:37.557Z,84.90
2023-01-01T21:45:45.594Z,85.10
2023-01-01T21:53:54.090Z,86.00
2023-01-01T22:02:19.486Z,85.70
2023-01-01T22:10:32.366Z,84.60
2023-01-01T22:18:42.903Z,84.20
2023-01-01T22:26:51.531Z,84.80
2023-01-01T22:35:02.505Z,84.80
2023-01-01T22:43:16.818Z,85.30
2023-01-01T22:51:25.094Z,85.70
2023-01-01T22:59:33.881Z,85.00
2023-01-01T23:07:42.204Z,84.90
2023-01-01T23:16:08.473Z,85.50
2023-01-01T23:24:17.147Z,85.90
2023-01-01T23:32:25.154Z,86.10
2023-01-01T23:40:30.562Z,87.10
2023-01-01T23:48:38.874Z,86.70
2023-01-01T23:56:44.695Z,87.10
